Time;durP1;ratioP1;P1;durP2;ratioP2;P2;SDS_P1;SDS_P2;PMS_P1;PMS_P2;Temp;Humidity;BMP_temperature;BMP_pressure;BME280_temperature;BME280_humidity;BME280_pressure;Samples;Min_cycle;Max_cycle;Signal;HPM_P1;HPM_P2
2022/11/01 00:01:48;;;;;;;14.48;11.90;;;;;;;12.45;63.98;95631.19;5136604;27;20207;-69
2022/11/01 00:04:15;;;;;;;15.23;12.10;;;;;;;12.43;64.28;95627.19;5135935;27;20207;-69
2022/11/01 00:06:42;;;;;;;14.18;12.68;;;;;;;12.42;63.93;95625.56;5137433;27;20495;-69
2022/11/01 00:09:09;;;;;;;15.50;12.00;;;;;;;12.41;64.12;95629.47;5137258;27;20206;-69
2022/11/01 00:11:36;;;;;;;14.30;11.70;;;;;;;12.38;63.93;95625.47;5137314;27;20202;-69
2022/11/01 00:14:03;;;;;;;13.35;11.05;;;;;;;12.40;64.36;95627.88;5136540;27;20199;-69
2022/11/01 00:16:32;;;;;;;12.95;10.90;;;;;;;12.39;64.21;95620.75;5137248;27;20195;-69
2022/11/01 00:18:58;;;;;;;13.75;10.95;;;;;;;12.34;64.21;95626.50;5136227;27;20194;-69
2022/11/01 00:21:25;;;;;;;11.40;10.05;;;;;;;12.27;64.33;95616.03;5136624;27;20530;-69
2022/11/01 00:23:52;;;;;;;11.30;10.20;;;;;;;12.27;64.78;95619.63;5136173;27;20251;-69
2022/11/01 00:26:20;;;;;;;13.48;10.30;;;;;;;12.28;64.61;95615.69;5136228;27;20191;-69
2022/11/01 00:28:47;;;;;;;12.90;10.60;;;;;;;12.29;64.26;95620.06;5136890;27;20211;-69
2022/11/01 00:31:15;;;;;;;11.32;10.23;;;;;;;12.28;64.48;95614.91;5136644;27;20599;-69
2022/11/01 00:33:43;;;;;;;11.73;10.45;;;;;;;12.25;64.32;95618.38;5137118;27;20187;-69
2022/11/01 00:36:10;;;;;;;12.05;10.80;;;;;;;12.20;64.59;95618.59;5136143;27;20187;-69
2022/11/01 00:38:37;;;;;;;12.88;11.00;;;;;;;12.19;64.82;95623.31;5136608;27;20291;-69
2022/11/01 00:41:04;;;;;;;13.50;10.77;;;;;;;12.09;64.71;95623.00;5135855;27;20199;-69
2022/11/01 00:43:31;;;;;;;12.43;10.75;;;;;;;11.96;64.34;95625.00;5136075;27;20195;-69
2022/11/01 00:46:00;;;;;;;12.07;10.77;;;;;;;11.91;64.46;95623.28;5136681;27;20195;-69
2022/11/01 00:48:27;;;;;;;11.80;10.70;;;;;;;11.93;64.64;95620.97;5136489;27;20199;-69
2022/11/01 00:50:55;;;;;;;12.57;11.13;;;;;;;11.92;65.04;95622.13;5136843;27;20183;-69
2022/11/01 00:53:23;;;;;;;12.90;10.98;;;;;;;11.87;64.81;95627.06;5136344;27;20179;-69
2022/11/01 00:55:49;;;;;;;12.23;10.93;;;;;;;11.87;65.02;95627.88;5135545;27;20230;-69
2022/11/01 00:58:16;;;;;;;13.15;11.18;;;;;;;11.86;64.59;95623.50;5136187;27;20621;-69
2022/11/01 01:00:43;;;;;;;11.77;10.57;;;;;;;11.82;64.89;95631.66;5136380;27;20183;-69
2022/11/01 01:03:10;;;;;;;12.52;11.32;;;;;;;11.77;64.69;95625.56;5136148;27;20527;-70
2022/11/01 01:05:37;;;;;;;12.70;11.25;;;;;;;11.74;64.74;95629.03;5136418;27;20187;-69
2022/11/01 01:08:05;;;;;;;12.63;10.63;;;;;;;11.76;65.04;95630.28;5135665;27;20202;-69
2022/11/01 01:10:32;;;;;;;12.93;11.63;;;;;;;11.78;64.43;95629.94;5135405;27;20586;-69
2022/11/01 01:13:00;;;;;;;12.88;11.27;;;;;;;11.80;64.84;95635.91;5135129;27;20205;-70
2022/11/01 01:15:26;;;;;;;14.18;11.77;;;;;;;11.75;64.53;95630.63;5136386;27;20269;-69
2022/11/01 01:17:53;;;;;;;13.50;12.15;;;;;;;11.73;65.01;95628.22;5135746;27;20187;-70
2022/11/01 01:20:20;;;;;;;14.48;11.88;;;;;;;11.62;64.93;95635.38;5135397;28;20191;-69
2022/11/01 01:22:47;;;;;;;12.93;11.57;;;;;;;11.57;65.37;95632.81;5136226;27;20179;-69
2022/11/01 01:25:15;;;;;;;14.88;12.25;;;;;;;11.59;65.30;95635.25;5135812;28;20195;-69
2022/11/01 01:27:42;;;;;;;12.45;11.23;;;;;;;11.60;65.59;95634.09;5135688;28;20207;-69
2022/11/01 01:30:09;;;;;;;12.23;10.85;;;;;;;11.56;65.67;95632.03;5136313;27;20207;-69
2022/11/01 01:32:36;;;;;;;11.85;10.38;;;;;;;11.57;65.79;95627.28;5136120;27;20187;-69
2022/11/01 01:35:03;;;;;;;11.40;9.93;;;;;;;11.60;65.96;95632.13;5134911;28;20199;-69
2022/11/01 01:37:30;;;;;;;14.35;11.70;;;;;;;11.62;65.79;95634.53;5135989;28;20199;-69
2022/11/01 01:39:57;;;;;;;12.02;10.73;;;;;;;11.55;65.56;95627.66;5134748;28;20234;-69
2022/11/01 01:42:29;;;;;;;12.10;10.80;;;;;;;11.54;65.67;95633.50;5135670;28;20183;-69
2022/11/01 01:45:24;;;;;;;12.55;11.25;;;;;;;11.50;65.75;95633.38;5135474;28;20206;-69
2022/11/01 01:47:52;;;;;;;12.05;10.73;;;;;;;11.51;65.46;95642.47;5135510;28;20179;-69
2022/11/01 01:50:23;;;;;;;12.60;11.30;;;;;;;11.50;65.37;95641.69;5134878;28;20211;-70
2022/11/01 01:52:53;;;;;;;13.60;10.45;;;;;;;11.49;65.22;95642.84;5135938;27;20183;-69
2022/11/01 01:55:22;;;;;;;13.70;11.27;;;;;;;11.44;65.37;95642.28;5135919;27;20191;-69
2022/11/01 01:57:52;;;;;;;12.55;10.15;;;;;;;11.36;64.64;95638.44;5136103;27;20180;-69
2022/11/01 02:00:19;;;;;;;11.65;10.38;;;;;;;11.34;65.49;95643.53;5135113;28;20198;-69
2022/11/01 02:02:46;;;;;;;13.65;10.70;;;;;;;11.33;65.52;95644.69;5134875;28;20263;-69
2022/11/01 02:05:17;;;;;;;13.65;11.50;;;;;;;11.33;65.18;95639.97;5136036;27;20195;-69
2022/11/01 02:07:45;;;;;;;12.77;10.95;;;;;;;11.24;65.24;95642.00;5135646;27;20187;-69
2022/11/01 02:10:13;;;;;;;14.63;10.38;;;;;;;11.18;65.90;95640.59;5134885;28;20211;-69
2022/11/01 02:12:46;;;;;;;10.20;9.02;;;;;;;11.17;65.87;95646.47;5134798;28;20191;-69
2022/11/01 02:15:14;;;;;;;10.48;9.38;;;;;;;11.16;66.22;95644.88;5135486;28;20206;-69
2022/11/01 02:17:49;;;;;;;10.65;9.63;;;;;;;11.17;65.56;95636.25;5134878;28;20195;-69
2022/11/01 02:20:47;;;;;;;10.48;9.40;;;;;;;11.23;65.71;95647.88;5135830;28;20190;-69
2022/11/01 02:23:38;;;;;;;12.50;9.25;;;;;;;11.17;66.09;95647.28;5133452;28;20288;-69
2022/11/01 02:26:21;;;;;;;9.75;8.77;;;;;;;11.15;66.25;95649.59;5135013;28;20191;-69
2022/11/01 02:28:54;;;;;;;10.95;9.85;;;;;;;11.16;66.30;95653.16;5137072;27;20218;-69
2022/11/01 02:31:37;;;;;;;11.00;9.93;;;;;;;11.17;66.29;95649.25;5138000;27;20194;-69
2022/11/01 02:34:08;;;;;;;11.05;9.32;;;;;;;11.15;65.74;95648.75;5139134;27;20190;-69
2022/11/01 02:36:40;;;;;;;11.90;10.23;;;;;;;11.14;66.15;95652.69;5138529;27;20270;-69
2022/11/01 02:39:10;;;;;;;11.50;10.18;;;;;;;11.15;65.73;95655.13;5139026;27;20238;-69
2022/11/01 02:41:41;;;;;;;11.35;10.25;;;;;;;11.13;65.65;95662.13;5138429;27;20603;-68
2022/11/01 02:44:12;;;;;;;11.23;10.00;;;;;;;11.10;65.89;95663.59;5138165;27;20202;-69
2022/11/01 02:49:27;;;;;;;12.75;10.10;;;;;;;11.04;65.84;95662.22;5138510;27;20221;-68
2022/11/01 02:51:55;;;;;;;11.00;9.95;;;;;;;11.02;65.96;95667.28;5138843;27;20255;-68
2022/11/01 02:54:23;;;;;;;10.90;9.75;;;;;;;10.97;66.18;95678.53;5138761;27;20232;-68
2022/11/01 02:56:50;;;;;;;12.52;10.35;;;;;;;10.97;66.18;95673.81;5137956;27;20190;-69
2022/11/01 02:59:23;;;;;;;11.88;10.68;;;;;;;10.95;66.15;95670.59;5138958;27;20189;-69
2022/11/01 03:01:52;;;;;;;12.57;11.20;;;;;;;10.95;66.55;95667.81;5138701;27;20243;-69
2022/11/01 03:04:19;;;;;;;12.73;10.57;;;;;;;10.91;66.37;95669.66;5138780;27;20188;-69
2022/11/01 03:06:49;;;;;;;11.65;9.77;;;;;;;10.93;66.16;95672.06;5138215;27;20198;-69
2022/11/01 03:09:16;;;;;;;11.63;10.43;;;;;;;10.84;66.08;95670.22;5137564;27;20554;-69
2022/11/01 03:11:49;;;;;;;11.75;10.45;;;;;;;10.80;66.07;95677.56;5138203;27;20523;-69
2022/11/01 03:14:23;;;;;;;11.82;9.55;;;;;;;10.78;66.07;95679.88;5138494;27;20217;-69
2022/11/01 03:16:54;;;;;;;12.10;10.77;;;;;;;10.76;65.94;95673.06;5137435;27;20255;-69
2022/11/01 03:19:32;;;;;;;11.60;10.50;;;;;;;10.68;66.06;95680.28;5138413;27;20180;-69
2022/11/01 03:22:04;;;;;;;12.23;10.93;;;;;;;10.61;66.23;95680.00;5138346;27;20191;-68
2022/11/01 03:24:35;;;;;;;12.23;11.05;;;;;;;10.51;66.48;95680.41;5120168;27;20191;-69
2022/11/01 03:27:05;;;;;;;11.45;10.40;;;;;;;10.48;66.59;95681.91;5138191;27;20198;-69
2022/11/01 03:29:33;;;;;;;10.93;9.55;;;;;;;10.46;66.63;95683.41;5137378;27;20344;-68
2022/11/01 03:32:01;;;;;;;12.57;10.70;;;;;;;10.44;66.73;95686.47;5137025;27;20226;-68
2022/11/01 03:34:29;;;;;;;12.88;10.82;;;;;;;10.42;66.92;95691.53;5138013;27;20199;-69
2022/11/01 03:36:59;;;;;;;12.50;11.15;;;;;;;10.38;67.33;95682.28;5137854;27;20194;-69
2022/11/01 03:39:32;;;;;;;11.48;10.27;;;;;;;10.41;67.30;95678.06;5136134;27;20223;-69
2022/11/01 03:42:02;;;;;;;11.55;10.35;;;;;;;10.41;67.55;95678.88;5136948;27;20199;-69
2022/11/01 03:44:32;;;;;;;13.15;11.07;;;;;;;10.41;67.57;95681.63;5137799;27;20256;-69
2022/11/01 03:46:59;;;;;;;13.48;11.75;;;;;;;10.44;67.93;95680.97;5137809;27;20204;-69
2022/11/01 03:49:26;;;;;;;13.75;12.27;;;;;;;10.47;67.81;95682.25;5137073;27;20211;-69
2022/11/01 03:51:52;;;;;;;16.02;12.63;;;;;;;10.48;67.72;95684.66;5137882;27;20190;-69
2022/11/01 03:54:19;;;;;;;12.35;11.07;;;;;;;10.47;67.47;95685.81;5136757;27;20202;-69
2022/11/01 03:56:47;;;;;;;12.63;11.32;;;;;;;10.46;67.53;95681.44;5136684;27;20277;-69
2022/11/01 03:59:16;;;;;;;13.00;10.98;;;;;;;10.45;67.32;95679.81;5137679;27;20598;-69
2022/11/01 04:01:42;;;;;;;12.30;11.10;;;;;;;10.43;67.01;95676.59;5136744;27;20218;-69
2022/11/01 04:04:09;;;;;;;14.45;12.23;;;;;;;10.43;67.14;95686.81;5136647;27;20203;-70
2022/11/01 04:06:36;;;;;;;12.57;11.35;;;;;;;10.40;66.93;95685.53;5137082;27;20514;-69
2022/11/01 04:09:02;;;;;;;12.60;11.30;;;;;;;10.41;67.14;95681.63;5136061;27;20202;-69
2022/11/01 04:11:29;;;;;;;13.63;11.23;;;;;;;10.44;67.06;95685.66;5137558;27;20192;-69
2022/11/01 04:22:26;;;;;;;15.13;11.52;;;;;;;10.38;66.65;95670.47;5136547;27;20191;-69
2022/11/01 04:24:52;;;;;;;14.82;11.55;;;;;;;10.35;66.78;95670.00;5137168;27;20183;-69
2022/11/01 04:27:19;;;;;;;16.25;10.73;;;;;;;10.35;66.75;95669.22;5136059;27;20183;-69
2022/11/01 04:29:47;;;;;;;13.00;11.70;;;;;;;10.31;67.07;95673.75;5136242;27;20230;-69
2022/11/01 04:32:14;;;;;;;14.05;12.45;;;;;;;10.24;66.86;95676.22;5136458;27;20202;-69
2022/11/01 04:34:44;;;;;;;16.40;12.35;;;;;;;10.19;67.29;95674.47;5135742;27;20191;-69
2022/11/01 04:37:11;;;;;;;12.95;11.57;;;;;;;10.16;66.90;95683.41;5136544;27;20195;-69
2022/11/01 04:39:39;;;;;;;13.82;12.43;;;;;;;10.10;67.06;95688.31;5136345;27;20246;-69
2022/11/01 04:42:06;;;;;;;13.55;12.15;;;;;;;10.04;67.11;95680.59;5136877;27;20179;-69
2022/11/01 04:44:33;;;;;;;12.85;11.48;;;;;;;10.01;67.63;95679.28;5137118;27;20179;-69
2022/11/01 04:47:01;;;;;;;13.90;12.40;;;;;;;10.03;67.80;95685.28;5135804;27;20252;-69
2022/11/01 04:49:28;;;;;;;13.70;12.23;;;;;;;10.04;67.93;95688.84;5135493;27;20203;-69
2022/11/01 04:51:54;;;;;;;13.52;12.13;;;;;;;10.06;67.72;95686.59;5135431;27;20194;-69
2022/11/01 04:54:21;;;;;;;17.20;15.48;;;;;;;10.07;67.51;95686.25;5136028;27;20187;-69
2022/11/01 04:56:48;;;;;;;17.25;15.50;;;;;;;10.08;67.32;95687.03;5136573;27;20196;-69
2022/11/01 04:59:15;;;;;;;17.10;12.82;;;;;;;10.02;67.53;95693.88;5135679;27;20263;-70
2022/11/01 05:01:43;;;;;;;13.32;11.93;;;;;;;10.03;67.87;95698.28;5136315;27;20198;-70
2022/11/01 05:04:12;;;;;;;17.52;13.02;;;;;;;9.99;67.92;95695.38;5135885;27;20585;-70
2022/11/01 05:06:38;;;;;;;18.42;14.45;;;;;;;10.00;67.71;95696.97;5135597;27;20191;-70
2022/11/01 05:09:05;;;;;;;17.60;13.93;;;;;;;9.98;67.43;95703.97;5136488;27;20306;-72
2022/11/01 05:11:32;;;;;;;16.77;12.98;;;;;;;9.94;67.71;95703.00;5135511;27;20211;-71
2022/11/01 05:13:59;;;;;;;17.38;12.98;;;;;;;9.93;67.90;95704.16;5136301;27;20184;-69
2022/11/01 05:16:26;;;;;;;15.60;13.50;;;;;;;9.94;68.19;95709.31;5118476;27;20195;-70
2022/11/01 05:18:53;;;;;;;16.90;13.00;;;;;;;9.96;67.95;95706.25;5135567;27;20198;-70
2022/11/01 05:21:22;;;;;;;15.23;13.68;;;;;;;9.98;67.91;95713.03;5136226;27;20182;-69
2022/11/01 05:23:49;;;;;;;17.38;13.30;;;;;;;9.97;67.89;95711.41;5135407;28;20186;-69
2022/11/01 05:26:15;;;;;;;21.95;14.35;;;;;;;10.00;68.02;95719.03;5136636;27;20252;-69
2022/11/01 05:28:42;;;;;;;16.40;13.13;;;;;;;10.00;67.63;95716.28;5135067;28;20190;-70
2022/11/01 05:31:09;;;;;;;17.55;13.65;;;;;;;10.01;67.71;95712.38;5136161;27;20222;-70
2022/11/01 05:33:36;;;;;;;17.23;14.05;;;;;;;10.00;67.99;95716.28;5135273;28;20224;-70
2022/11/01 05:36:03;;;;;;;17.40;14.13;;;;;;;9.97;68.13;95719.69;5135159;28;20187;-70
2022/11/01 05:38:32;;;;;;;21.80;14.68;;;;;;;10.00;67.78;95721.78;5136035;27;20235;-70
2022/11/01 05:41:02;;;;;;;19.60;13.98;;;;;;;10.01;68.01;95720.63;5135665;28;20232;-69
2022/11/01 05:43:28;;;;;;;18.45;14.45;;;;;;;9.99;68.38;95717.41;5135124;28;20195;-70
2022/11/01 05:45:56;;;;;;;17.17;14.27;;;;;;;9.99;68.23;95728.44;5135271;28;20244;-70
2022/11/01 05:48:23;;;;;;;19.33;15.10;;;;;;;9.99;68.23;95733.97;5135148;28;20534;-74
2022/11/01 05:50:49;;;;;;;18.13;14.52;;;;;;;10.00;68.51;95723.72;5135245;28;20215;-72
2022/11/01 05:53:16;;;;;;;21.83;14.68;;;;;;;10.04;68.57;95733.75;5134936;28;20195;-70
2022/11/01 05:55:45;;;;;;;22.10;14.88;;;;;;;10.07;68.36;95738.59;5135934;27;20244;-71
2022/11/01 05:58:11;;;;;;;23.73;14.15;;;;;;;10.08;68.35;95733.91;5134984;28;20198;-70
2022/11/01 06:00:38;;;;;;;22.48;15.73;;;;;;;10.13;68.64;95740.03;5135363;28;20191;-70
2022/11/01 06:03:05;;;;;;;21.10;15.70;;;;;;;10.18;68.48;95736.28;5136400;27;20203;-71
2022/11/01 06:05:32;;;;;;;20.33;15.63;;;;;;;10.23;68.51;95746.28;5138909;27;20191;-72
2022/11/01 06:08:01;;;;;;;19.92;14.88;;;;;;;10.28;68.59;95741.44;5138652;27;20633;-70
2022/11/01 06:10:28;;;;;;;22.80;16.17;;;;;;;10.32;68.61;95741.56;5138886;27;20230;-69
2022/11/01 06:12:56;;;;;;;25.85;15.98;;;;;;;10.34;68.78;95745.59;5138584;27;20191;-70
2022/11/01 06:15:23;;;;;;;20.45;14.18;;;;;;;10.40;68.86;95746.22;5138685;27;20206;-70
2022/11/01 06:17:56;;;;;;;23.27;14.65;;;;;;;10.47;68.94;95742.91;5122281;27;20198;-70
2022/11/01 06:20:23;;;;;;;20.88;14.80;;;;;;;10.55;69.25;95747.56;5139278;27;20239;-70
2022/11/01 06:22:50;;;;;;;20.83;15.43;;;;;;;10.62;69.46;95750.59;5138866;27;20190;-71
2022/11/01 06:25:16;;;;;;;22.73;15.13;;;;;;;10.69;69.59;95750.06;5138218;27;20207;-71
2022/11/01 06:27:43;;;;;;;19.15;14.35;;;;;;;10.76;69.62;95753.88;5139509;27;20183;-71
2022/11/01 06:30:12;;;;;;;17.17;13.52;;;;;;;10.89;69.77;95751.16;5139293;27;20198;-71
2022/11/01 06:32:39;;;;;;;14.30;12.57;;;;;;;10.98;70.07;95746.38;5138379;27;20198;-71
2022/11/01 06:35:07;;;;;;;14.52;12.75;;;;;;;11.08;69.63;95757.00;5138528;27;20195;-71
2022/11/01 06:37:33;;;;;;;16.40;12.85;;;;;;;11.19;69.15;95758.22;5138261;27;20208;-71
2022/11/01 06:40:01;;;;;;;15.70;14.10;;;;;;;11.29;69.14;95754.19;5138447;27;20307;-71
2022/11/01 06:42:27;;;;;;;17.38;14.68;;;;;;;11.38;69.01;95748.59;5138755;27;20599;-71
2022/11/01 06:44:54;;;;;;;19.65;17.25;;;;;;;11.45;69.21;95760.69;5137880;27;20187;-71
2022/11/01 06:47:23;;;;;;;24.55;19.33;;;;;;;11.52;69.40;95758.19;5138228;27;20638;-71
2022/11/01 06:49:50;;;;;;;24.13;20.08;;;;;;;11.57;69.03;95760.72;5137661;27;20618;-71
2022/11/01 06:52:16;;;;;;;29.77;23.30;;;;;;;11.65;69.14;95764.50;5138929;27;20179;-71
2022/11/01 06:54:43;;;;;;;28.77;22.98;;;;;;;11.75;68.58;95766.03;5138999;27;20183;-71
2022/11/01 06:57:10;;;;;;;25.23;22.45;;;;;;;11.81;69.12;95762.72;5138068;27;20199;-71
2022/11/01 06:59:37;;;;;;;26.52;23.55;;;;;;;11.88;69.23;95758.63;5138455;27;20591;-71
2022/11/01 07:02:04;;;;;;;30.52;24.73;;;;;;;11.94;69.23;95757.22;5138992;27;20189;-71
2022/11/01 07:04:32;;;;;;;31.40;24.55;;;;;;;12.00;69.05;95753.88;5138863;27;20179;-71
2022/11/01 07:06:59;;;;;;;30.27;26.02;;;;;;;12.07;68.61;95752.50;5137757;27;20623;-71
2022/11/01 07:09:26;;;;;;;29.92;25.90;;;;;;;12.14;68.32;95748.00;5137640;27;20207;-71
2022/11/01 07:11:53;;;;;;;32.90;25.38;;;;;;;12.24;68.03;95752.28;5138141;27;20214;-71
2022/11/01 07:14:19;;;;;;;26.67;23.63;;;;;;;12.31;68.20;95744.19;5137201;27;20202;-71
2022/11/01 07:16:47;;;;;;;27.77;22.73;;;;;;;12.43;67.51;95754.44;5137554;27;20184;-71
2022/11/01 07:19:13;;;;;;;27.00;22.83;;;;;;;12.50;67.20;95751.91;5138349;27;20183;-71
2022/11/01 07:21:42;;;;;;;27.17;22.98;;;;;;;12.57;66.93;95748.53;5137475;27;20197;-71
2022/11/01 07:24:08;;;;;;;28.95;23.17;;;;;;;12.64;67.06;95751.53;5137797;27;20206;-71
2022/11/01 07:26:36;;;;;;;26.88;22.13;;;;;;;12.71;67.33;95754.50;5138504;27;20187;-71
2022/11/01 07:29:03;;;;;;;25.20;22.27;;;;;;;12.79;67.04;95744.44;5137529;27;20202;-71
2022/11/01 07:31:32;;;;;;;25.13;21.48;;;;;;;12.89;67.19;95755.84;5137196;27;20210;-70
2022/11/01 07:33:59;;;;;;;26.30;23.10;;;;;;;13.05;66.70;95746.78;5138390;27;20282;-70
2022/11/01 07:36:26;;;;;;;25.83;23.05;;;;;;;13.13;66.14;95743.84;5138193;27;20237;-71
2022/11/01 07:38:54;;;;;;;27.08;24.25;;;;;;;13.21;66.11;95742.88;5136742;27;20257;-71
2022/11/01 07:41:20;;;;;;;28.38;24.27;;;;;;;13.28;65.57;95747.03;5138042;27;20172;-71
2022/11/01 07:43:47;;;;;;;27.52;23.70;;;;;;;13.36;64.94;95746.91;5138005;27;20198;-71
2022/11/01 07:46:14;;;;;;;26.05;23.23;;;;;;;13.45;65.34;95747.53;5137441;27;20281;-71
2022/11/01 07:48:41;;;;;;;24.58;21.08;;;;;;;13.57;64.60;95749.41;5137018;27;20191;-71
2022/11/01 07:51:08;;;;;;;25.00;21.05;;;;;;;13.67;64.99;95748.09;5136611;27;20211;-71
2022/11/01 07:53:35;;;;;;;26.20;23.35;;;;;;;13.77;64.70;95744.00;5137325;27;20179;-72
2022/11/01 07:56:03;;;;;;;25.83;21.80;;;;;;;13.86;64.79;95737.09;5137346;27;20205;-71
2022/11/01 07:58:30;;;;;;;27.88;22.65;;;;;;;13.99;64.02;95742.56;5137362;27;20187;-71
2022/11/01 08:00:57;;;;;;;26.13;21.35;;;;;;;14.04;63.53;95742.28;5137593;27;20179;-71
2022/11/01 08:03:24;;;;;;;26.52;20.65;;;;;;;14.09;63.25;95737.28;5137602;27;20183;-71
2022/11/01 08:05:51;;;;;;;23.52;20.25;;;;;;;14.18;63.62;95735.09;5137089;27;20202;-72
2022/11/01 08:08:18;;;;;;;25.30;19.85;;;;;;;14.35;63.67;95735.91;5137529;27;20179;-72
2022/11/01 08:10:46;;;;;;;24.20;20.75;;;;;;;14.48;62.30;95736.59;5136059;27;20211;-72
2022/11/01 08:13:18;;;;;;;24.05;20.45;;;;;;;14.56;61.95;95741.16;5136080;27;20210;-71
2022/11/01 08:15:46;;;;;;;24.70;21.02;;;;;;;14.65;62.16;95730.66;5136153;27;20218;-71
2022/11/01 08:18:13;;;;;;;26.33;20.35;;;;;;;14.77;61.79;95732.50;5136310;27;20205;-72
2022/11/01 08:20:40;;;;;;;27.45;19.67;;;;;;;14.85;61.07;95729.53;5137174;27;20187;-71
2022/11/01 08:23:07;;;;;;;23.90;20.00;;;;;;;15.04;61.56;95734.28;5137248;27;20240;-71
2022/11/01 08:25:34;;;;;;;28.85;19.73;;;;;;;15.23;60.56;95725.13;5135852;27;20199;-72
2022/11/01 08:28:02;;;;;;;27.33;23.83;;;;;;;15.38;60.27;95728.97;5137143;27;20247;-72
2022/11/01 08:30:30;;;;;;;25.20;22.05;;;;;;;15.50;59.86;95716.88;5136362;27;20620;-72
2022/11/01 08:32:59;;;;;;;27.35;24.40;;;;;;;15.46;59.15;95716.81;5135686;27;20616;-72
2022/11/01 08:35:25;;;;;;;26.40;23.58;;;;;;;15.49;59.33;95712.50;5135987;27;20203;-71
2022/11/01 08:37:53;;;;;;;27.15;24.00;;;;;;;15.56;59.19;95720.97;5136267;27;20206;-71
2022/11/01 08:40:21;;;;;;;24.90;20.55;;;;;;;15.65;58.46;95707.66;5136934;27;20231;-71
2022/11/01 08:42:48;;;;;;;24.55;19.05;;;;;;;15.69;58.70;95716.88;5135660;27;20206;-71
2022/11/01 08:45:16;;;;;;;23.33;20.17;;;;;;;15.75;58.46;95715.38;5135590;27;20194;-72
2022/11/01 08:47:44;;;;;;;23.52;18.88;;;;;;;15.84;57.93;95717.94;5136431;27;20512;-72
2022/11/01 08:50:13;;;;;;;21.00;18.70;;;;;;;15.90;58.38;95719.22;5136334;27;20191;-72
2022/11/01 08:52:40;;;;;;;22.92;18.63;;;;;;;16.03;58.01;95717.06;5136368;27;20207;-72
2022/11/01 08:55:08;;;;;;;22.48;17.13;;;;;;;16.18;57.62;95718.88;5135323;27;20225;-72
2022/11/01 08:57:35;;;;;;;22.20;17.60;;;;;;;16.30;57.62;95710.34;5135536;27;20218;-72
2022/11/01 09:00:01;;;;;;;19.67;16.90;;;;;;;16.44;58.49;95711.72;5135228;27;20210;-72
2022/11/01 09:02:28;;;;;;;18.63;15.77;;;;;;;16.54;56.95;95706.31;5136492;27;20183;-72
2022/11/01 09:04:56;;;;;;;18.90;15.75;;;;;;;16.61;55.73;95702.81;5135802;27;20187;-72
2022/11/01 09:07:23;;;;;;;18.95;14.73;;;;;;;16.64;55.11;95699.28;5135388;27;20191;-72
2022/11/01 09:09:50;;;;;;;19.42;14.90;;;;;;;16.68;54.75;95700.13;5135988;27;20195;-72
2022/11/01 09:12:17;;;;;;;16.27;13.70;;;;;;;16.73;55.50;95693.44;5136320;27;20199;-72
2022/11/01 09:14:44;;;;;;;17.80;13.77;;;;;;;16.82;55.74;95703.16;5135999;27;20183;-72
2022/11/01 09:17:11;;;;;;;18.83;15.00;;;;;;;16.96;55.83;95690.59;5136409;27;20195;-72
2022/11/01 09:19:38;;;;;;;22.38;15.25;;;;;;;17.14;55.95;95686.03;5136348;27;20187;-72
2022/11/01 09:22:06;;;;;;;19.58;15.35;;;;;;;17.27;54.65;95687.38;5135718;27;20202;-72
2022/11/01 09:24:32;;;;;;;21.35;15.82;;;;;;;17.32;56.66;95683.44;5136373;27;20240;-72
2022/11/01 09:26:59;;;;;;;19.38;15.65;;;;;;;17.37;56.76;95679.50;5135295;28;20561;-72
2022/11/01 09:29:26;;;;;;;19.15;15.93;;;;;;;17.46;57.21;95680.00;5135269;28;20195;-72
2022/11/01 09:31:54;;;;;;;23.35;16.35;;;;;;;17.50;54.01;95678.88;5135093;28;20583;-72
2022/11/01 09:34:21;;;;;;;20.42;15.77;;;;;;;17.55;55.45;95678.50;5135670;28;20199;-72
2022/11/01 09:36:49;;;;;;;19.45;16.08;;;;;;;17.72;54.69;95667.88;5135177;27;20203;-72
2022/11/01 09:39:20;;;;;;;19.20;14.75;;;;;;;17.82;55.28;95667.22;5139094;27;20246;-72
2022/11/01 09:41:50;;;;;;;19.02;16.80;;;;;;;17.99;53.02;95663.78;5140046;27;20202;-71
2022/11/01 09:44:19;;;;;;;21.63;15.70;;;;;;;18.12;54.14;95664.28;5140153;27;20179;-72
2022/11/01 09:46:48;;;;;;;20.30;15.30;;;;;;;18.18;53.16;95665.50;5140180;27;20195;-71
2022/11/01 09:49:20;;;;;;;22.33;16.23;;;;;;;18.20;52.57;95659.56;5139869;27;20187;-71
2022/11/01 09:51:47;;;;;;;22.27;16.63;;;;;;;18.26;52.64;95652.41;5140302;27;20211;-71
2022/11/01 09:54:14;;;;;;;21.60;16.17;;;;;;;18.27;53.18;95652.03;5139647;27;20194;-71
2022/11/01 09:56:51;;;;;;;18.92;15.57;;;;;;;18.33;53.95;95643.28;5139002;27;20207;-71
2022/11/01 09:59:25;;;;;;;20.42;15.18;;;;;;;18.39;52.65;95648.13;5139948;27;20217;-71
2022/11/01 10:02:00;;;;;;;18.15;13.82;;;;;;;18.43;52.88;95642.56;5139439;27;20201;-71
2022/11/01 10:04:40;;;;;;;20.08;14.02;;;;;;;18.43;53.97;95643.34;5139698;27;20552;-71
2022/11/01 10:07:12;;;;;;;15.90;14.00;;;;;;;18.50;53.94;95639.78;5138912;27;20194;-72
2022/11/01 10:09:46;;;;;;;21.13;14.00;;;;;;;18.55;53.16;95641.41;5138862;27;20225;-72
2022/11/01 10:12:23;;;;;;;17.48;14.68;;;;;;;18.64;54.26;95633.50;5139161;27;20214;-72
2022/11/01 10:15:01;;;;;;;21.58;15.50;;;;;;;18.70;54.73;95638.31;5139031;27;20195;-72
2022/11/01 10:17:42;;;;;;;17.17;14.85;;;;;;;18.77;54.36;95626.38;5139601;27;20225;-72
2022/11/01 10:20:12;;;;;;;18.10;14.18;;;;;;;18.84;53.64;95625.63;5138448;27;20187;-72
2022/11/01 10:22:41;;;;;;;19.35;13.38;;;;;;;18.87;51.41;95616.44;5139264;27;20184;-71
2022/11/01 10:25:19;;;;;;;15.43;13.75;;;;;;;18.93;52.09;95623.28;5138653;27;20187;-71
2022/11/01 10:27:55;;;;;;;16.63;13.18;;;;;;;18.96;51.92;95616.91;5139154;27;20190;-72
2022/11/01 10:30:23;;;;;;;17.90;13.63;;;;;;;18.98;50.87;95609.69;5138116;27;20197;-72
2022/11/01 10:32:54;;;;;;;16.23;13.05;;;;;;;19.01;50.97;95610.91;5139413;27;20199;-72
2022/11/01 10:35:24;;;;;;;15.80;13.55;;;;;;;19.07;51.71;95614.13;5137998;27;20206;-72
2022/11/01 10:37:55;;;;;;;20.38;14.88;;;;;;;19.12;51.83;95606.16;5139487;27;20209;-72
2022/11/01 10:40:24;;;;;;;14.88;12.93;;;;;;;19.17;51.24;95604.97;5137691;27;20235;-71
2022/11/01 10:42:52;;;;;;;15.10;13.25;;;;;;;19.20;51.75;95604.97;5138220;27;20195;-72
2022/11/01 10:45:22;;;;;;;15.27;12.98;;;;;;;19.24;50.97;95597.41;5139007;27;20199;-72
2022/11/01 10:47:56;;;;;;;19.30;13.45;;;;;;;19.27;51.57;95595.78;5138537;27;20192;-72
2022/11/01 10:50:26;;;;;;;20.73;13.05;;;;;;;19.33;50.63;95590.63;5137797;27;20194;-72
2022/11/01 10:52:55;;;;;;;14.98;12.57;;;;;;;19.37;51.04;95586.63;5137939;27;20210;-71
2022/11/01 10:55:27;;;;;;;19.40;13.95;;;;;;;19.41;51.20;95589.44;5137972;27;20199;-71
2022/11/01 10:57:58;;;;;;;21.13;15.27;;;;;;;19.43;52.15;95584.25;5138561;27;20610;-72
2022/11/01 11:00:25;;;;;;;20.13;14.68;;;;;;;19.44;49.29;95578.25;5138762;27;20179;-72
2022/11/01 11:02:55;;;;;;;17.38;13.80;;;;;;;19.46;49.66;95580.63;5138038;27;20218;-71
2022/11/01 11:05:23;;;;;;;15.90;13.07;;;;;;;19.46;47.90;95577.84;5137781;27;20227;-71
2022/11/01 11:07:50;;;;;;;18.27;12.50;;;;;;;19.46;49.14;95575.88;5138726;27;20211;-71
2022/11/01 11:10:20;;;;;;;17.65;12.02;;;;;;;19.48;49.72;95567.84;5138689;27;20213;-71
2022/11/01 11:12:47;;;;;;;16.38;11.95;;;;;;;19.55;48.25;95577.47;5138605;27;20214;-71
2022/11/01 11:15:19;;;;;;;15.68;12.80;;;;;;;19.56;48.63;95574.25;5138564;27;20198;-71
2022/11/01 11:17:50;;;;;;;16.00;12.85;;;;;;;19.60;48.19;95569.44;5138248;27;20243;-71
2022/11/01 11:20:22;;;;;;;16.80;12.48;;;;;;;19.67;48.37;95569.50;5138531;27;20195;-71
2022/11/01 11:22:52;;;;;;;17.05;11.48;;;;;;;19.73;47.96;95561.50;5138378;27;20191;-71
2022/11/01 11:25:20;;;;;;;17.35;11.75;;;;;;;19.79;47.20;95562.72;5137546;27;20198;-71
2022/11/01 11:27:47;;;;;;;17.70;12.32;;;;;;;19.80;47.87;95560.72;5137909;27;20202;-71
2022/11/01 11:30:27;;;;;;;17.80;13.13;;;;;;;19.84;47.18;95561.50;5137449;27;20195;-71
2022/11/01 11:32:54;;;;;;;15.18;11.73;;;;;;;19.86;47.26;95553.47;5136966;27;20199;-71
2022/11/01 11:35:23;;;;;;;14.85;12.00;;;;;;;19.86;44.85;95551.50;5137043;27;20599;-71